createdAt,value
2018-11-20T00:00:02.187Z,44.00
2018-11-20T00:01:02.355Z,40.80
2018-11-20T00:02:02.526Z,41.80
2018-11-20T00:03:02.704Z,42.10
2018-11-20T00:04:02.870Z,35.50
2018-11-20T00:05:03.078Z,40.50
2018-11-20T00:06:03.211Z,39.10
2018-11-20T00:07:03.388Z,42.50
2018-11-20T00:08:03.553Z,41.80
2018-11-20T00:09:03.717Z,41.80
2018-11-20T00:10:03.904Z,42.70
2018-11-20T00:11:04.060Z,45.00
2018-11-20T00:12:04.228Z,42.20
2018-11-20T00:13:04.398Z,43.40
2018-11-20T00:14:04.562Z,39.60
2018-11-20T00:15:04.738Z,41.30
2018-11-20T00:16:04.910Z,42.60
2018-11-20T00:17:05.079Z,42.60
2018-11-20T00:18:05.247Z,36.60
2018-11-20T00:19:05.421Z,40.20
2018-11-20T00:20:05.582Z,39.80
2018-11-20T00:21:05.763Z,42.60
2018-11-20T00:22:05.927Z,39.10
2018-11-20T00:23:06.095Z,40.00
2018-11-20T00:24:06.267Z,39.70
2018-11-20T00:25:06.435Z,40.80
2018-11-20T00:26:06.610Z,42.10
2018-11-20T00:27:06.779Z,46.20
2018-11-20T00:28:06.958Z,42.00
2018-11-20T00:29:07.115Z,42.10
2018-11-20T00:30:07.305Z,43.10
2018-11-20T00:31:07.460Z,46.00
2018-11-20T00:32:07.632Z,37.80
2018-11-20T00:33:07.802Z,41.40
2018-11-20T00:34:07.983Z,45.00
2018-11-20T00:35:08.140Z,40.90
2018-11-20T00:36:08.300Z,43.90
2018-11-20T00:37:08.477Z,44.30
2018-11-20T00:38:08.648Z,43.70
2018-11-20T00:39:08.816Z,37.80
2018-11-20T00:40:08.993Z,41.60
2018-11-20T00:41:09.155Z,41.40
2018-11-20T00:42:09.326Z,39.80
2018-11-20T00:43:09.494Z,41.90
2018-11-20T00:44:09.670Z,43.00
2018-11-20T00:45:09.834Z,42.00
2018-11-20T00:46:10.002Z,43.00
2018-11-20T00:47:10.177Z,39.80
2018-11-20T00:48:10.348Z,40.80
2018-11-20T00:49:10.517Z,44.10
2018-11-20T00:50:10.690Z,39.20
2018-11-20T00:51:10.861Z,40.20
2018-11-20T00:52:11.027Z,40.50
2018-11-20T00:53:11.198Z,39.90
2018-11-20T00:54:11.366Z,38.10
2018-11-20T00:55:11.538Z,39.40
2018-11-20T00:56:11.836Z,40.20
2018-11-20T00:57:11.874Z,39.20
2018-11-20T00:58:12.037Z,42.20
2018-11-20T00:59:12.219Z,41.80
2018-11-20T01:00:12.396Z,41.10
2018-11-20T01:01:12.545Z,38.10
2018-11-20T01:02:12.720Z,42.00
2018-11-20T01:03:12.896Z,41.00
2018-11-20T01:04:13.064Z,41.00
2018-11-20T01:05:13.233Z,40.70
2018-11-20T01:07:13.573Z,37.60
2018-11-20T01:08:13.739Z,42.00
2018-11-20T01:09:13.910Z,41.30
2018-11-20T01:10:14.091Z,39.00
2018-11-20T01:11:14.250Z,37.50
2018-11-20T01:12:14.418Z,34.70
2018-11-20T01:13:14.585Z,35.70
2018-11-20T01:14:14.758Z,41.50
2018-11-20T01:15:14.928Z,38.10
2018-11-20T01:16:15.098Z,37.90
2018-11-20T01:17:15.267Z,39.40
2018-11-20T01:18:15.435Z,32.90
2018-11-20T01:19:15.606Z,39.00
2018-11-20T01:20:15.791Z,33.80
2018-11-20T01:21:15.948Z,39.00
2018-11-20T01:22:16.121Z,39.80
2018-11-20T01:23:16.298Z,42.80
2018-11-20T01:24:16.460Z,41.20
2018-11-20T01:25:16.626Z,34.20
2018-11-20T01:26:16.798Z,34.40
2018-11-20T01:27:16.969Z,43.60
2018-11-20T01:28:17.146Z,42.80
2018-11-20T01:29:17.303Z,38.60
2018-11-20T01:30:17.475Z,41.80
2018-11-20T01:31:17.644Z,39.60
2018-11-20T01:32:17.828Z,39.50
2018-11-20T01:33:17.988Z,40.80
2018-11-20T01:34:18.155Z,39.60
2018-11-20T01:35:18.329Z,39.30
2018-11-20T01:36:18.499Z,35.20
2018-11-20T01:37:18.675Z,40.60
2018-11-20T01:38:18.827Z,40.00
2018-11-20T01:39:18.997Z,40.40
2018-11-20T01:40:19.166Z,37.10
2018-11-20T01:41:19.392Z,39.40
2018-11-20T01:42:19.507Z,35.60
2018-11-20T01:43:19.682Z,37.50
2018-11-20T01:44:19.853Z,35.80
2018-11-20T01:45:20.021Z,40.00
2018-11-20T01:46:20.194Z,38.80
2018-11-20T01:47:20.362Z,41.80
2018-11-20T01:48:20.541Z,43.20
2018-11-20T01:49:20.714Z,40.00
2018-11-20T01:50:20.871Z,39.60
2018-11-20T01:51:21.106Z,40.20
2018-11-20T01:52:21.215Z,38.40
2018-11-20T01:53:21.379Z,41.90
2018-11-20T01:54:21.548Z,37.80
2018-11-20T01:55:21.719Z,40.60
2018-11-20T01:56:21.889Z,35.40
2018-11-20T01:57:22.060Z,35.90
2018-11-20T01:58:22.228Z,39.20
2018-11-20T01:59:22.398Z,38.90
2018-11-20T02:00:22.562Z,33.30
2018-11-20T02:01:22.730Z,38.60
2018-11-20T02:02:22.896Z,41.20
2018-11-20T02:03:23.074Z,37.50
2018-11-20T02:04:23.250Z,42.90
2018-11-20T02:05:23.414Z,36.20
2018-11-20T02:06:23.590Z,39.40
2018-11-20T02:07:23.757Z,35.40
2018-11-20T02:08:23.926Z,40.40
2018-11-20T02:09:24.098Z,38.30
2018-11-20T02:10:24.261Z,34.00
2018-11-20T02:11:24.431Z,34.40
2018-11-20T02:12:24.603Z,37.60
2018-11-20T02:13:24.776Z,37.40
2018-11-20T02:14:24.943Z,42.30
2018-11-20T02:15:25.111Z,39.20
2018-11-20T02:16:25.280Z,37.40
2018-11-20T02:17:25.456Z,35.50
2018-11-20T02:18:25.607Z,37.10
2018-11-20T02:19:25.787Z,39.50
2018-11-20T02:20:25.958Z,38.00
2018-11-20T02:21:26.128Z,42.10
2018-11-20T02:22:26.294Z,41.60
2018-11-20T02:23:26.466Z,39.40
2018-11-20T02:24:26.639Z,42.40
2018-11-20T02:25:26.809Z,40.00
2018-11-20T02:26:26.994Z,41.50
2018-11-20T02:27:27.148Z,37.90
2018-11-20T02:28:27.316Z,34.80
2018-11-20T02:29:27.490Z,39.20
2018-11-20T02:30:27.658Z,36.50
2018-11-20T02:31:27.829Z,40.20
2018-11-20T02:32:27.998Z,41.40
2018-11-20T02:33:28.171Z,39.30
2018-11-20T02:34:28.337Z,42.20
2018-11-20T02:35:28.518Z,37.20
2018-11-20T02:36:28.677Z,42.00
2018-11-20T02:37:28.847Z,41.00
2018-11-20T02:38:29.016Z,42.10
2018-11-20T02:39:29.190Z,40.60
2018-11-20T02:40:29.359Z,38.20
2018-11-20T02:41:29.530Z,33.50
2018-11-20T02:42:29.697Z,40.10
2018-11-20T02:43:29.873Z,42.00
2018-11-20T02:44:30.035Z,40.90
2018-11-20T02:45:30.208Z,44.30
2018-11-20T02:46:30.377Z,42.50
2018-11-20T02:47:30.548Z,42.00
2018-11-20T02:48:30.718Z,37.80
2018-11-20T02:49:30.889Z,38.60
2018-11-20T02:50:31.057Z,32.70
2018-11-20T02:51:31.248Z,41.40
2018-11-20T02:52:31.398Z,43.00
2018-11-20T02:53:31.566Z,39.60
2018-11-20T02:54:31.737Z,39.00
2018-11-20T02:55:31.903Z,38.70
2018-11-20T02:56:32.078Z,40.80
2018-11-20T02:57:32.247Z,39.40
2018-11-20T02:58:32.421Z,38.60
2018-11-20T02:59:32.587Z,38.90
2018-11-20T03:00:32.755Z,42.70
2018-11-20T03:01:32.929Z,38.60
2018-11-20T03:02:33.101Z,40.50
2018-11-20T03:03:33.313Z,42.90
2018-11-20T03:04:33.439Z,40.80
2018-11-20T03:05:33.611Z,41.80
2018-11-20T03:06:33.772Z,41.50
2018-11-20T03:07:33.938Z,39.70
2018-11-20T03:08:34.104Z,39.70
2018-11-20T03:09:34.288Z,43.40
2018-11-20T03:10:34.459Z,41.00
2018-11-20T03:11:34.628Z,42.00
2018-11-20T03:12:34.803Z,41.10
2018-11-20T03:13:34.974Z,40.10
2018-11-20T03:14:35.147Z,42.40
2018-11-20T03:15:35.307Z,36.00
2018-11-20T03:16:35.477Z,35.20
2018-11-20T03:17:35.645Z,37.80
2018-11-20T03:18:35.818Z,38.80
2018-11-20T03:19:35.987Z,34.20
2018-11-20T03:20:36.155Z,41.40
2018-11-20T03:21:36.322Z,42.40
2018-11-20T03:22:36.494Z,37.00
2018-11-20T03:23:36.668Z,37.60
2018-11-20T03:24:36.835Z,39.90
2018-11-20T03:25:37.013Z,41.50
2018-11-20T03:26:37.184Z,39.60
2018-11-20T03:27:37.347Z,38.70
2018-11-20T03:28:37.522Z,42.10
2018-11-20T03:29:37.693Z,39.80
2018-11-20T03:30:37.864Z,41.50
2018-11-20T03:31:38.033Z,40.60
2018-11-20T03:32:38.203Z,41.10
2018-11-20T03:33:38.375Z,40.70
2018-11-20T03:34:38.544Z,39.90
2018-11-20T03:35:38.715Z,35.50
2018-11-20T03:36:38.892Z,40.80
2018-11-20T03:37:39.058Z,38.40
2018-11-20T03:38:39.229Z,40.30
2018-11-20T03:39:39.401Z,39.10
2018-11-20T03:40:39.580Z,34.80
2018-11-20T03:41:39.787Z,37.20
2018-11-20T03:42:40.022Z,39.50
2018-11-20T03:43:40.096Z,39.00
2018-11-20T03:44:40.282Z,33.60
2018-11-20T03:45:40.426Z,38.60
2018-11-20T03:46:40.596Z,37.00
2018-11-20T03:47:40.824Z,39.10
2018-11-20T03:48:40.946Z,38.30
2018-11-20T03:49:41.115Z,37.60
2018-11-20T03:50:41.313Z,35.00
2018-11-20T03:51:41.460Z,39.70
2018-11-20T03:52:41.630Z,37.70
2018-11-20T03:53:41.800Z,39.20
2018-11-20T03:54:41.973Z,29.10
2018-11-20T03:55:42.140Z,38.50
2018-11-20T03:56:42.312Z,36.00
2018-11-20T03:57:42.477Z,29.90
2018-11-20T03:58:42.649Z,36.60
2018-11-20T03:59:42.841Z,40.90
2018-11-20T04:00:42.984Z,36.50
2018-11-20T04:01:43.154Z,40.30
2018-11-20T04:02:43.332Z,43.00
2018-11-20T04:03:43.497Z,35.90
2018-11-20T04:04:43.667Z,35.30
2018-11-20T04:05:43.836Z,39.00
2018-11-20T04:06:44.002Z,36.90
2018-11-20T04:07:44.181Z,38.40
2018-11-20T04:08:44.351Z,35.50
2018-11-20T04:09:44.524Z,41.20
2018-11-20T04:10:44.687Z,40.10
2018-11-20T04:11:44.861Z,36.90
2018-11-20T04:12:45.033Z,40.90
2018-11-20T04:13:45.199Z,35.70
2018-11-20T04:14:45.372Z,36.60
2018-11-20T04:15:45.537Z,32.70
2018-11-20T04:16:45.707Z,32.30
2018-11-20T04:17:45.926Z,38.20
2018-11-20T04:18:46.048Z,34.00
2018-11-20T04:19:46.219Z,34.50
2018-11-20T04:20:46.387Z,37.50
2018-11-20T04:21:46.558Z,41.30
2018-11-20T04:22:46.730Z,39.00
2018-11-20T04:23:46.901Z,40.30
2018-11-20T04:24:47.068Z,37.00
2018-11-20T04:25:47.240Z,39.80
2018-11-20T04:26:47.411Z,39.00
2018-11-20T04:27:47.582Z,40.90
2018-11-20T04:28:47.751Z,37.40
2018-11-20T04:29:47.918Z,37.70
2018-11-20T04:30:48.095Z,31.80
2018-11-20T04:31:48.262Z,36.60
2018-11-20T04:32:48.434Z,39.10
2018-11-20T04:33:48.604Z,41.50
2018-11-20T04:34:48.773Z,40.50
2018-11-20T04:35:48.941Z,41.60
2018-11-20T04:36:49.109Z,39.80
2018-11-20T04:37:49.274Z,41.60
2018-11-20T04:38:49.447Z,41.30
2018-11-20T04:39:49.621Z,40.50
2018-11-20T04:40:49.789Z,40.60
2018-11-20T04:41:49.959Z,35.60
2018-11-20T04:42:50.132Z,36.60
2018-11-20T04:43:50.300Z,37.80
2018-11-20T04:44:50.470Z,40.70
2018-11-20T04:45:50.648Z,40.90
2018-11-20T04:46:50.815Z,38.20
2018-11-20T04:47:50.988Z,40.40
2018-11-20T04:48:51.162Z,39.90
2018-11-20T04:49:51.339Z,38.40
2018-11-20T04:50:51.499Z,40.60
2018-11-20T04:51:51.667Z,41.90
2018-11-20T04:52:51.831Z,40.60
2018-11-20T04:53:51.993Z,41.90
2018-11-20T04:54:52.166Z,41.60
2018-11-20T04:55:52.342Z,41.20
2018-11-20T04:56:52.516Z,41.20
2018-11-20T04:57:52.673Z,41.50
2018-11-20T04:58:52.853Z,38.50
2018-11-20T04:59:53.022Z,42.80
2018-11-20T05:00:53.185Z,43.40
2018-11-20T05:01:53.355Z,40.30
2018-11-20T05:02:53.524Z,42.30
2018-11-20T05:03:53.702Z,37.30
2018-11-20T05:04:53.864Z,40.40
2018-11-20T05:05:54.051Z,42.70
2018-11-20T05:06:54.278Z,36.80
2018-11-20T05:07:54.386Z,38.80
2018-11-20T05:08:54.563Z,40.60
2018-11-20T05:09:54.727Z,41.10
2018-11-20T05:10:54.894Z,40.50
2018-11-20T05:11:55.073Z,40.80
2018-11-20T05:12:55.235Z,39.30
2018-11-20T05:13:55.401Z,41.40
2018-11-20T05:14:55.573Z,40.70
2018-11-20T05:15:55.745Z,40.10
2018-11-20T05:16:55.914Z,39.90
2018-11-20T05:17:56.086Z,38.50
2018-11-20T05:18:56.252Z,40.90
2018-11-20T05:19:56.430Z,42.90
2018-11-20T05:20:56.602Z,36.40
2018-11-20T05:21:56.786Z,40.90
2018-11-20T05:22:56.950Z,43.70
2018-11-20T05:23:57.114Z,40.80
2018-11-20T05:24:57.288Z,41.20
2018-11-20T05:25:57.465Z,40.70
2018-11-20T05:26:57.642Z,41.50
2018-11-20T05:27:57.890Z,42.40
2018-11-20T05:28:57.968Z,41.90
2018-11-20T05:29:58.123Z,40.30
2018-11-20T05:30:58.371Z,41.40
2018-11-20T05:31:58.464Z,44.60
2018-11-20T05:32:58.633Z,43.30
2018-11-20T05:33:58.803Z,44.30
2018-11-20T05:34:58.976Z,42.50
2018-11-20T05:35:59.145Z,37.20
2018-11-20T05:36:59.320Z,43.20
2018-11-20T05:37:59.486Z,46.00
2018-11-20T05:38:59.657Z,44.60
2018-11-20T05:39:59.828Z,44.20
2018-11-20T05:41:00.001Z,46.90
2018-11-20T05:42:00.177Z,40.70
2018-11-20T05:43:00.335Z,41.20
2018-11-20T05:44:00.520Z,40.20
2018-11-20T05:45:00.679Z,41.50
2018-11-20T05:46:00.840Z,42.60
2018-11-20T05:47:01.135Z,43.50
2018-11-20T05:48:01.184Z,45.20
2018-11-20T05:49:01.355Z,41.60
2018-11-20T05:50:01.528Z,45.90
2018-11-20T05:51:01.694Z,40.60
2018-11-20T05:52:01.855Z,41.00
2018-11-20T05:53:02.025Z,43.90
2018-11-20T05:54:02.196Z,42.80
2018-11-20T05:55:02.367Z,46.10
2018-11-20T05:56:02.543Z,46.20
2018-11-20T05:57:02.710Z,46.70
2018-11-20T05:58:02.916Z,45.40
2018-11-20T05:59:03.040Z,45.40
2018-11-20T06:00:03.223Z,48.40
2018-11-20T06:01:03.382Z,42.00
2018-11-20T06:02:03.550Z,42.30
2018-11-20T06:03:03.722Z,42.50
2018-11-20T06:04:03.894Z,44.40
2018-11-20T06:05:04.073Z,42.10
2018-11-20T06:06:04.274Z,44.80
2018-11-20T06:07:04.414Z,43.80
2018-11-20T06:08:04.582Z,43.40
2018-11-20T06:09:04.754Z,41.30
2018-11-20T06:10:04.935Z,43.80
2018-11-20T06:11:05.091Z,43.70
2018-11-20T06:12:05.264Z,46.10
2018-11-20T06:13:05.435Z,41.20
2018-11-20T06:14:05.601Z,46.30
2018-11-20T06:15:05.772Z,45.60
2018-11-20T06:16:05.946Z,43.20
2018-11-20T06:17:06.108Z,45.30
2018-11-20T06:18:06.276Z,46.80
2018-11-20T06:19:06.539Z,45.10
2018-11-20T06:20:06.620Z,42.80
2018-11-20T06:21:06.795Z,44.80
2018-11-20T06:22:06.963Z,42.30
2018-11-20T06:23:07.129Z,44.00
2018-11-20T06:24:07.303Z,40.40
2018-11-20T06:25:07.469Z,40.80
2018-11-20T06:26:07.641Z,45.70
2018-11-20T06:27:07.811Z,47.40
2018-11-20T06:28:07.981Z,43.00
2018-11-20T06:29:08.220Z,42.20
2018-11-20T06:30:08.317Z,44.70
2018-11-20T06:31:08.499Z,43.80
2018-11-20T06:32:08.662Z,42.80
2018-11-20T06:33:08.833Z,42.30
2018-11-20T06:34:09.062Z,43.10
2018-11-20T06:35:09.196Z,43.80
2018-11-20T06:36:09.353Z,43.80
2018-11-20T06:37:09.524Z,46.00
2018-11-20T06:38:09.692Z,45.50
2018-11-20T06:39:09.862Z,42.80
2018-11-20T06:40:10.039Z,46.50
2018-11-20T06:41:10.230Z,43.60
2018-11-20T06:42:10.370Z,42.30
2018-11-20T06:43:10.541Z,42.20
2018-11-20T06:44:10.715Z,44.90
2018-11-20T06:45:10.903Z,44.10
2018-11-20T06:46:11.048Z,43.10
2018-11-20T06:47:11.259Z,45.30
2018-11-20T06:48:11.417Z,42.50
2018-11-20T06:49:11.596Z,41.30
2018-11-20T06:50:11.762Z,43.20
2018-11-20T06:51:11.932Z,42.30
2018-11-20T06:52:12.104Z,43.70
2018-11-20T06:53:12.377Z,41.50
2018-11-20T06:54:12.439Z,43.40
2018-11-20T06:55:12.608Z,42.80
2018-11-20T06:56:12.780Z,40.70
2018-11-20T06:57:12.967Z,43.30
2018-11-20T06:58:13.104Z,42.90
2018-11-20T06:59:13.287Z,40.10
2018-11-20T07:00:13.446Z,40.70
2018-11-20T07:01:13.621Z,42.50
2018-11-20T07:02:13.804Z,44.10
2018-11-20T07:03:13.968Z,43.10
2018-11-20T07:04:14.156Z,41.30
2018-11-20T07:05:14.318Z,42.10
2018-11-20T07:06:14.486Z,41.80
2018-11-20T07:07:14.725Z,42.90
2018-11-20T07:08:14.957Z,42.90
2018-11-20T07:09:15.001Z,44.40
2018-11-20T07:10:15.178Z,43.50
2018-11-20T07:11:15.346Z,42.10
2018-11-20T07:12:15.517Z,43.00
2018-11-20T07:13:15.691Z,43.90
2018-11-20T07:14:15.873Z,48.10
2018-11-20T07:15:16.063Z,43.90
2018-11-20T07:16:16.433Z,42.50
2018-11-20T07:17:16.386Z,43.00
2018-11-20T07:18:16.555Z,44.90
2018-11-20T07:19:16.722Z,45.40
2018-11-20T07:20:16.897Z,44.60
2018-11-20T07:21:17.069Z,44.60
2018-11-20T07:22:17.301Z,40.40
2018-11-20T07:23:17.396Z,50.40
2018-11-20T07:24:17.662Z,86.70
2018-11-20T07:25:17.716Z,46.60
2018-11-20T07:26:17.903Z,41.40
2018-11-20T07:27:18.059Z,42.70
2018-11-20T07:28:18.234Z,44.60
2018-11-20T07:29:18.404Z,42.50
2018-11-20T07:30:18.743Z,42.20
2018-11-20T07:31:18.768Z,45.30
2018-11-20T07:32:18.895Z,41.60
2018-11-20T07:33:19.049Z,41.70
2018-11-20T07:34:19.245Z,46.70
2018-11-20T07:35:19.388Z,44.60
2018-11-20T07:36:19.713Z,44.20
2018-11-20T07:37:19.983Z,40.80
2018-11-20T07:38:19.916Z,42.20
2018-11-20T07:39:20.071Z,41.20
2018-11-20T07:40:20.237Z,43.10
2018-11-20T07:41:20.395Z,38.50
2018-11-20T07:42:20.569Z,43.60
2018-11-20T07:43:20.869Z,42.50
2018-11-20T07:44:21.002Z,40.90
2018-11-20T07:45:21.124Z,43.10
2018-11-20T07:46:21.253Z,42.70
2018-11-20T07:47:21.420Z,42.40
2018-11-20T07:48:21.600Z,42.90
2018-11-20T07:49:21.766Z,43.70
2018-11-20T07:50:21.937Z,43.80
2018-11-20T07:51:22.105Z,41.10
2018-11-20T07:52:22.276Z,42.90
2018-11-20T07:53:22.451Z,44.40
2018-11-20T07:54:22.628Z,43.00
2018-11-20T07:55:22.896Z,42.60
2018-11-20T07:56:23.193Z,48.60
2018-11-20T07:57:23.136Z,42.80
2018-11-20T07:58:23.296Z,44.30
2018-11-20T07:59:23.468Z,44.30
2018-11-20T08:00:23.638Z,45.80
2018-11-20T08:01:23.810Z,43.90
2018-11-20T08:02:24.001Z,45.30
2018-11-20T08:03:24.158Z,44.50
2018-11-20T08:04:24.326Z,45.80
2018-11-20T08:05:24.507Z,43.80
2018-11-20T08:06:24.667Z,45.80
2018-11-20T08:07:24.836Z,44.40
2018-11-20T08:08:25.088Z,45.40
2018-11-20T08:09:25.184Z,44.70
2018-11-20T08:10:25.346Z,44.30
2018-11-20T08:11:25.521Z,49.10
2018-11-20T08:12:25.683Z,43.70
2018-11-20T08:13:25.853Z,47.90
2018-11-20T08:14:26.022Z,42.40
2018-11-20T08:15:26.240Z,41.90
2018-11-20T08:16:26.382Z,45.20
2018-11-20T08:17:26.544Z,44.10
2018-11-20T08:18:26.695Z,45.80
2018-11-20T08:19:26.864Z,41.10
2018-11-20T08:20:27.037Z,45.40
2018-11-20T08:21:27.206Z,41.60
2018-11-20T08:22:27.376Z,46.40
2018-11-20T08:23:27.547Z,43.60
2018-11-20T08:24:27.720Z,44.30
2018-11-20T08:25:28.081Z,43.00
2018-11-20T08:26:28.306Z,43.20
2018-11-20T08:27:28.801Z,44.60
2018-11-20T08:28:28.397Z,47.20
2018-11-20T08:29:28.570Z,40.30
2018-11-20T08:30:28.734Z,45.40
2018-11-20T08:31:28.910Z,45.30
2018-11-20T08:32:29.083Z,42.60
2018-11-20T08:33:29.286Z,41.60
2018-11-20T08:34:29.431Z,36.10
2018-11-20T08:35:29.600Z,45.10
2018-11-20T08:36:29.771Z,46.20
2018-11-20T08:37:29.940Z,43.80
2018-11-20T08:38:30.108Z,45.60
2018-11-20T08:39:30.281Z,45.80
2018-11-20T08:40:30.450Z,43.20
2018-11-20T08:41:30.623Z,42.60
2018-11-20T08:42:30.800Z,41.10
2018-11-20T08:43:30.968Z,45.10
2018-11-20T08:44:31.138Z,42.70
2018-11-20T08:45:31.309Z,37.00
2018-11-20T08:46:31.482Z,44.00
2018-11-20T08:47:31.703Z,42.70
2018-11-20T08:48:31.954Z,40.30
2018-11-20T08:49:31.995Z,44.20
2018-11-20T08:50:32.174Z,45.50
2018-11-20T08:51:32.333Z,43.50
2018-11-20T08:52:32.504Z,43.00
2018-11-20T08:53:32.737Z,43.60
2018-11-20T08:54:32.847Z,39.60
2018-11-20T08:55:33.017Z,43.00
2018-11-20T08:56:33.199Z,43.00
2018-11-20T08:57:33.359Z,45.10
2018-11-20T08:58:33.531Z,45.00
2018-11-20T08:59:33.702Z,46.20
2018-11-20T09:00:33.874Z,42.90
2018-11-20T09:02:34.377Z,42.70
2018-11-20T09:03:34.395Z,41.10
2018-11-20T09:05:34.718Z,49.70
2018-11-20T09:06:34.871Z,46.00
2018-11-20T09:07:35.050Z,42.20
2018-11-20T09:08:35.218Z,45.10
2018-11-20T09:09:35.402Z,43.70
2018-11-20T09:10:35.692Z,43.30
2018-11-20T09:11:35.727Z,40.10
2018-11-20T09:12:35.889Z,37.70
2018-11-20T09:13:36.053Z,36.30
2018-11-20T09:14:36.224Z,41.20
2018-11-20T09:15:36.439Z,40.70
2018-11-20T09:16:36.548Z,43.50
2018-11-20T09:17:36.723Z,39.80
2018-11-20T09:18:36.890Z,33.40
2018-11-20T09:19:37.059Z,40.20
2018-11-20T09:20:37.234Z,44.50
2018-11-20T09:21:37.404Z,39.80
2018-11-20T09:22:37.573Z,42.30
2018-11-20T09:23:37.782Z,41.90
2018-11-20T09:24:37.924Z,43.40
2018-11-20T09:25:38.123Z,41.10
2018-11-20T09:26:38.254Z,38.50
2018-11-20T09:27:38.445Z,43.90
2018-11-20T09:28:38.609Z,40.60
2018-11-20T09:29:38.780Z,43.70
2018-11-20T09:30:38.926Z,40.90
2018-11-20T09:31:39.090Z,45.60
2018-11-20T09:32:39.268Z,44.00
2018-11-20T09:33:39.420Z,40.60
2018-11-20T09:34:39.808Z,44.80
2018-11-20T09:35:40.044Z,44.50
2018-11-20T09:36:39.949Z,44.80
2018-11-20T09:37:40.108Z,41.90
2018-11-20T09:38:40.270Z,44.90
2018-11-20T09:39:40.445Z,46.80
2018-11-20T09:40:40.613Z,43.50
2018-11-20T09:41:40.782Z,41.50
2018-11-20T09:42:40.948Z,42.70
2018-11-20T09:43:41.115Z,41.40
2018-11-20T09:44:41.292Z,39.70
2018-11-20T09:45:41.451Z,46.30
2018-11-20T09:46:41.715Z,46.10
2018-11-20T09:47:41.780Z,44.90
2018-11-20T09:48:41.950Z,44.70
2018-11-20T09:49:42.132Z,43.00
2018-11-20T09:50:42.286Z,41.50
2018-11-20T09:51:42.458Z,43.60
2018-11-20T09:52:42.678Z,45.00
2018-11-20T09:53:42.791Z,44.40
2018-11-20T09:54:42.978Z,45.70
2018-11-20T09:55:43.128Z,45.10
2018-11-20T09:56:43.296Z,45.10
2018-11-20T09:57:43.453Z,43.60
2018-11-20T09:58:43.628Z,47.90
2018-11-20T09:59:43.867Z,43.90
2018-11-20T10:00:43.969Z,45.00
2018-11-20T10:01:44.175Z,45.10
2018-11-20T10:02:44.313Z,43.30
2018-11-20T10:03:44.655Z,47.60
2018-11-20T10:04:44.648Z,40.80
2018-11-20T10:26:16.143Z,48.30
2018-11-20T10:27:16.235Z,45.30
2018-11-20T10:28:16.403Z,44.60
2018-11-20T10:29:16.572Z,44.10
2018-11-20T10:30:16.736Z,42.30
2018-11-20T10:31:16.911Z,45.20
2018-11-20T10:32:17.073Z,46.60
2018-11-20T10:33:17.247Z,48.10
2018-11-20T10:34:17.431Z,49.20
2018-11-20T10:35:17.602Z,45.90
2018-11-20T10:36:17.752Z,46.20
2018-11-20T10:37:17.925Z,42.90
2018-11-20T10:38:18.098Z,46.70
2018-11-20T10:39:18.267Z,45.00
2018-11-20T10:40:18.508Z,47.30
2018-11-20T10:41:18.601Z,45.10
2018-11-20T10:42:18.775Z,48.00
2018-11-20T10:43:18.942Z,46.70
2018-11-20T10:44:19.115Z,45.40
2018-11-20T10:45:19.328Z,44.40
2018-11-20T10:46:19.567Z,45.30
2018-11-20T10:47:19.608Z,44.20
2018-11-20T10:48:19.776Z,40.60
2018-11-20T10:49:19.937Z,45.00
2018-11-20T10:50:20.108Z,43.30
2018-11-20T10:51:20.274Z,43.00
2018-11-20T10:52:20.503Z,40.10
2018-11-20T10:53:20.597Z,44.50
2018-11-20T10:54:20.768Z,46.20
2018-11-20T10:55:20.942Z,46.70
2018-11-20T10:56:21.109Z,41.50
2018-11-20T10:57:21.292Z,42.70
2018-11-20T10:58:21.443Z,44.20
2018-11-20T10:59:21.620Z,45.50
2018-11-20T11:00:21.774Z,44.30
2018-11-20T11:01:21.940Z,44.10
2018-11-20T11:02:22.101Z,43.00
2018-11-20T11:03:22.299Z,40.10
2018-11-20T11:04:22.585Z,42.50
2018-11-20T11:05:22.632Z,43.60
2018-11-20T11:06:22.948Z,42.30
2018-11-20T11:07:23.054Z,42.80
2018-11-20T11:08:23.167Z,43.90
2018-11-20T11:09:23.310Z,43.20
2018-11-20T11:10:23.482Z,40.50
2018-11-20T11:11:23.700Z,44.80
2018-11-20T11:12:23.822Z,43.20
2018-11-20T11:13:23.982Z,44.90
2018-11-20T11:14:24.187Z,38.10
2018-11-20T11:15:24.313Z,39.60
2018-11-20T11:16:24.485Z,40.00
2018-11-20T11:17:24.660Z,40.20
2018-11-20T11:18:24.941Z,38.60
2018-11-20T11:19:25.006Z,37.80
2018-11-20T11:20:25.253Z,40.40
2018-11-20T11:21:25.345Z,40.60
2018-11-20T11:22:25.516Z,40.30
2018-11-20T11:23:25.682Z,38.70
2018-11-20T11:24:25.854Z,40.00
2018-11-20T11:25:26.020Z,43.00
2018-11-20T11:26:26.190Z,38.30
2018-11-20T11:27:26.367Z,40.00
2018-11-20T11:28:26.525Z,41.20
2018-11-20T11:29:26.693Z,41.90
2018-11-20T11:30:26.866Z,43.20
2018-11-20T11:31:27.035Z,37.40
2018-11-20T11:32:27.203Z,38.50
2018-11-20T11:33:28.882Z,41.60
2018-11-20T11:34:27.562Z,40.00
2018-11-20T11:35:27.716Z,37.50
2018-11-20T11:36:27.897Z,40.00
2018-11-20T11:37:28.046Z,38.20
2018-11-20T11:38:28.270Z,39.40
2018-11-20T11:39:28.377Z,40.90
2018-11-20T11:40:28.547Z,39.20
2018-11-20T11:41:28.724Z,38.40
2018-11-20T11:42:28.878Z,35.90
2018-11-20T11:43:29.046Z,39.30
2018-11-20T11:44:29.234Z,37.70
2018-11-20T11:45:29.402Z,40.10
2018-11-20T11:46:29.575Z,35.50
2018-11-20T11:47:29.741Z,35.00
2018-11-20T11:48:29.910Z,36.10
2018-11-20T11:49:30.092Z,35.80
2018-11-20T11:50:30.234Z,36.50
2018-11-20T11:51:30.412Z,39.40
2018-11-20T11:52:30.577Z,37.80
2018-11-20T11:53:30.737Z,38.50
2018-11-20T11:54:30.901Z,37.60
2018-11-20T11:55:31.073Z,36.60
2018-11-20T11:56:31.250Z,36.90
2018-11-20T11:57:31.416Z,36.90
2018-11-20T11:58:31.583Z,36.30
2018-11-20T11:59:31.755Z,35.80
2018-11-20T12:00:31.923Z,37.10
2018-11-20T12:03:32.403Z,33.30
2018-11-20T12:04:32.563Z,33.40
2018-11-20T12:05:32.734Z,32.70
2018-11-20T12:06:32.911Z,32.70
2018-11-20T12:07:33.079Z,32.90
2018-11-20T12:08:33.248Z,31.50
2018-11-20T12:09:33.415Z,30.70
2018-11-20T12:10:36.358Z,31.20
2018-11-20T12:11:33.767Z,30.20
2018-11-20T12:12:33.925Z,32.00
2018-11-20T12:13:34.091Z,34.30
2018-11-20T12:14:34.264Z,30.00
2018-11-20T12:15:34.428Z,32.50
2018-11-20T12:16:34.601Z,33.00
2018-11-20T12:17:34.771Z,33.40
2018-11-20T12:18:34.931Z,32.30
2018-11-20T12:19:35.115Z,32.10
2018-11-20T12:20:35.269Z,29.80
2018-11-20T12:21:35.442Z,29.50
2018-11-20T12:22:35.621Z,32.10
2018-11-20T12:23:35.788Z,31.00
2018-11-20T12:24:35.957Z,29.40
2018-11-20T12:25:36.132Z,31.10
2018-11-20T12:26:36.286Z,29.30
2018-11-20T12:27:38.170Z,29.70
2018-11-20T12:28:36.627Z,26.50
2018-11-20T12:29:37.349Z,29.20
2018-11-20T12:30:36.970Z,27.50
2018-11-20T12:31:37.164Z,30.50
2018-11-20T12:32:37.319Z,29.40
2018-11-20T12:33:37.496Z,25.10
2018-11-20T12:34:37.663Z,28.00
2018-11-20T12:36:38.021Z,27.90
2018-11-20T12:38:38.331Z,29.00
2018-11-20T12:39:40.782Z,25.40
2018-11-20T12:40:38.670Z,28.30
2018-11-20T12:41:38.839Z,27.50
2018-11-20T12:42:41.027Z,26.90
2018-11-20T12:43:39.170Z,29.60
2018-11-20T12:44:39.346Z,31.70
2018-11-20T12:45:39.539Z,28.30
2018-11-20T12:46:39.691Z,28.80
2018-11-20T12:47:40.515Z,27.20
2018-11-20T12:48:40.352Z,27.00
2018-11-20T12:49:40.203Z,29.70
2018-11-20T12:50:40.368Z,27.70
2018-11-20T12:51:40.547Z,29.70
2018-11-20T12:52:41.266Z,30.40
2018-11-20T12:53:40.871Z,26.90
2018-11-20T12:54:41.072Z,26.60
2018-11-20T12:55:41.227Z,26.90
2018-11-20T12:56:41.398Z,28.80
2018-11-20T12:57:41.579Z,28.40
2018-11-20T12:58:41.735Z,28.00
2018-11-20T12:59:41.905Z,29.90
2018-11-20T13:00:42.072Z,27.80
2018-11-20T13:01:42.228Z,28.40
2018-11-20T13:02:42.398Z,27.50
2018-11-20T13:03:42.579Z,29.10
2018-11-20T13:04:42.761Z,28.60
2018-11-20T13:05:42.898Z,25.80
2018-11-20T13:06:43.084Z,25.50
2018-11-20T13:07:43.244Z,25.70
2018-11-20T13:08:43.414Z,26.40
2018-11-20T13:09:43.581Z,25.90
2018-11-20T13:10:43.743Z,25.50
2018-11-20T13:11:43.910Z,23.90
2018-11-20T13:12:44.084Z,24.30
2018-11-20T13:13:44.251Z,24.40
2018-11-20T13:14:44.419Z,26.40
2018-11-20T13:15:44.593Z,23.70
2018-11-20T13:16:44.744Z,25.10
2018-11-20T13:17:44.906Z,24.40
2018-11-20T13:18:45.079Z,24.20
2018-11-20T13:19:45.264Z,24.60
2018-11-20T13:20:45.398Z,25.70
2018-11-20T13:21:45.585Z,26.20